Time;durP1;ratioP1;P1;durP2;ratioP2;P2;SDS_P1;SDS_P2;PMS_P1;PMS_P2;Temp;Humidity;BMP_temperature;BMP_pressure;BME280_temperature;BME280_humidity;BME280_pressure;Samples;Min_cycle;Max_cycle;Signal;HPM_P1;HPM_P2
2021/07/25 00:01:17;;;;;;;;;4.00;3.67;;;;;;;;5058549;27;52075;-58
2021/07/25 00:03:42;;;;;;;;;4.67;4.67;;;;;;;;5072609;28;50932;-58
2021/07/25 00:06:13;;;;;;;;;5.67;5.67;;;;;;;;5077200;27;51228;-58
2021/07/25 00:08:38;;;;;;;;;3.00;3.00;;;;;;;;5070782;27;51150;-57
2021/07/25 00:11:03;;;;;;;;;5.00;4.33;;;;;;;;5070804;27;51912;-58
2021/07/25 00:13:30;;;;;;;;;7.33;7.33;;;;;;;;5069982;27;50861;-58
2021/07/25 00:15:55;;;;;;;;;4.00;4.00;;;;;;;;5071708;27;51255;-57
2021/07/25 00:18:20;;;;;;;;;5.00;4.33;;;;;;;;5062030;28;51127;-57
2021/07/25 00:20:45;;;;;;;;;3.00;3.00;;;;;;;;5066365;28;52246;-57
2021/07/25 00:23:17;;;;;;;;;4.00;3.67;;;;;;;;5072730;27;51099;-57
2021/07/25 00:25:42;;;;;;;;;3.00;3.00;;;;;;;;5070125;27;51081;-57
2021/07/25 00:28:14;;;;;;;;;2.33;2.33;;;;;;;;5072471;27;50955;-57
2021/07/25 00:30:39;;;;;;;;;5.00;4.67;;;;;;;;5065389;27;52175;-57
2021/07/25 00:33:04;;;;;;;;;5.00;5.00;;;;;;;;5072443;27;50888;-57
2021/07/25 00:35:30;;;;;;;;;3.33;3.00;;;;;;;;5072157;27;50894;-57
2021/07/25 00:37:55;;;;;;;;;3.00;3.00;;;;;;;;5072448;28;51098;-58
2021/07/25 00:40:35;;;;;;;;;3.67;3.33;;;;;;;;5071209;27;52199;-57
2021/07/25 00:43:00;;;;;;;;;4.33;3.33;;;;;;;;5064713;27;51122;-57
2021/07/25 00:45:26;;;;;;;;;2.33;2.33;;;;;;;;5068876;28;50953;-57
2021/07/25 00:47:51;;;;;;;;;3.33;3.00;;;;;;;;5071645;27;50992;-57
2021/07/25 00:50:17;;;;;;;;;3.00;3.00;;;;;;;;5071920;27;51835;-57
2021/07/25 00:52:42;;;;;;;;;3.00;2.33;;;;;;;;5071182;27;51216;-57
2021/07/25 00:55:07;;;;;;;;;4.33;4.00;;;;;;;;5065369;27;50941;-57
2021/07/25 00:57:32;;;;;;;;;2.67;2.67;;;;;;;;5076613;27;50949;-57
2021/07/25 00:59:58;;;;;;;;;4.00;3.00;;;;;;;;5070460;27;51810;-57
2021/07/25 01:02:29;;;;;;;;;4.67;2.67;;;;;;;;5063146;28;51175;-57
2021/07/25 01:05:04;;;;;;;;;3.33;3.00;;;;;;;;5072396;27;51178;-57
2021/07/25 01:07:39;;;;;;;;;2.00;2.00;;;;;;;;5063792;27;51278;-58
2021/07/25 01:10:04;;;;;;;;;2.00;2.00;;;;;;;;5072366;28;51049;-58
2021/07/25 01:12:37;;;;;;;;;2.00;2.00;;;;;;;;5074545;27;50971;-58
2021/07/25 01:15:02;;;;;;;;;4.00;3.00;;;;;;;;5064256;28;51088;-58
2021/07/25 01:17:34;;;;;;;;;4.00;4.00;;;;;;;;5075640;27;51316;-57
2021/07/25 01:20:04;;;;;;;;;3.00;3.00;;;;;;;;5068387;27;52919;-57
2021/07/25 01:22:32;;;;;;;;;3.00;3.00;;;;;;;;5073405;27;51017;-57
2021/07/25 01:24:57;;;;;;;;;2.33;2.00;;;;;;;;5074014;27;51100;-57
2021/07/25 01:27:35;;;;;;;;;4.00;3.00;;;;;;;;5075513;27;50936;-57
2021/07/25 01:30:02;;;;;;;;;5.33;4.33;;;;;;;;5065421;28;51818;-58
2021/07/25 01:32:28;;;;;;;;;4.00;2.33;;;;;;;;5075236;27;51032;-57
2021/07/25 01:34:54;;;;;;;;;3.00;3.00;;;;;;;;5074514;27;51193;-57
2021/07/25 01:37:20;;;;;;;;;4.00;3.00;;;;;;;;5074234;27;51322;-57
2021/07/25 01:39:45;;;;;;;;;4.00;2.67;;;;;;;;5064414;28;51837;-58
2021/07/25 01:42:11;;;;;;;;;2.00;2.00;;;;;;;;5074238;27;51044;-57
2021/07/25 01:44:36;;;;;;;;;4.00;4.00;;;;;;;;5069487;27;50991;-58
2021/07/25 01:47:01;;;;;;;;;3.00;3.00;;;;;;;;5071631;28;51352;-57
2021/07/25 01:49:26;;;;;;;;;3.00;3.00;;;;;;;;5064912;27;51163;-57
2021/07/25 01:51:52;;;;;;;;;4.00;4.00;;;;;;;;5075295;27;51158;-58
2021/07/25 01:54:17;;;;;;;;;2.00;2.00;;;;;;;;5064501;27;51098;-57
2021/07/25 01:56:42;;;;;;;;;3.00;3.00;;;;;;;;5070464;28;51402;-57
2021/07/25 01:59:07;;;;;;;;;2.33;2.33;;;;;;;;5073433;27;52184;-57
2021/07/25 02:01:32;;;;;;;;;5.00;4.00;;;;;;;;5074626;28;50949;-57
2021/07/25 02:03:58;;;;;;;;;2.33;2.33;;;;;;;;5075222;27;51058;-57
2021/07/25 02:06:23;;;;;;;;;2.33;2.33;;;;;;;;5074483;27;50956;-58
2021/07/25 02:08:48;;;;;;;;;4.33;3.67;;;;;;;;5068742;28;52080;-59
2021/07/25 02:11:13;;;;;;;;;4.00;4.00;;;;;;;;5063804;28;51211;-58
2021/07/25 02:13:38;;;;;;;;;4.00;3.67;;;;;;;;5073057;28;51042;-58
2021/07/25 02:16:04;;;;;;;;;4.33;4.00;;;;;;;;5075160;27;50950;-57
2021/07/25 02:18:29;;;;;;;;;4.00;3.00;;;;;;;;5071020;27;51918;-57
2021/07/25 02:20:54;;;;;;;;;3.33;3.33;;;;;;;;5074219;27;50877;-57
2021/07/25 02:23:19;;;;;;;;;3.00;2.67;;;;;;;;5072094;27;51354;-57
2021/07/25 02:25:45;;;;;;;;;6.00;4.67;;;;;;;;5069179;28;51217;-58
2021/07/25 02:28:10;;;;;;;;;3.00;3.00;;;;;;;;5072602;27;51075;-58
2021/07/25 02:30:35;;;;;;;;;6.00;6.00;;;;;;;;5074522;27;51128;-57
2021/07/25 02:33:01;;;;;;;;;4.00;4.00;;;;;;;;5072993;27;52096;-57
2021/07/25 02:35:26;;;;;;;;;4.33;4.00;;;;;;;;5074881;27;51097;-57
2021/07/25 02:37:51;;;;;;;;;5.00;5.00;;;;;;;;5074470;27;50975;-57
2021/07/25 02:40:16;;;;;;;;;5.00;4.00;;;;;;;;5074354;27;50989;-57
2021/07/25 02:42:43;;;;;;;;;3.33;3.33;;;;;;;;5072569;28;51171;-57
2021/07/25 02:45:08;;;;;;;;;4.33;3.00;;;;;;;;5071118;28;50989;-58
2021/07/25 02:47:33;;;;;;;;;3.33;3.00;;;;;;;;5074194;27;51058;-58
2021/07/25 02:49:58;;;;;;;;;3.00;2.33;;;;;;;;5073552;27;50988;-58
2021/07/25 02:52:24;;;;;;;;;2.67;2.00;;;;;;;;5073185;28;50948;-58
2021/07/25 02:54:49;;;;;;;;;5.00;4.00;;;;;;;;5073008;28;51320;-58
2021/07/25 02:57:14;;;;;;;;;3.00;3.00;;;;;;;;5074238;27;52351;-57
2021/07/25 02:59:39;;;;;;;;;5.67;4.00;;;;;;;;5072191;27;51138;-58
2021/07/25 03:02:04;;;;;;;;;5.33;5.33;;;;;;;;5074584;27;51314;-60
2021/07/25 03:04:30;;;;;;;;;5.00;4.00;;;;;;;;5073480;27;51112;-58
2021/07/25 03:06:55;;;;;;;;;3.00;3.00;;;;;;;;5064711;27;51256;-57
2021/07/25 03:09:20;;;;;;;;;5.33;3.00;;;;;;;;5069599;27;51276;-57
2021/07/25 03:11:45;;;;;;;;;4.00;4.00;;;;;;;;5074237;27;51132;-57
2021/07/25 03:14:11;;;;;;;;;3.33;3.00;;;;;;;;5071665;27;51334;-57
2021/07/25 03:16:36;;;;;;;;;4.00;3.33;;;;;;;;5072767;28;51035;-58
2021/07/25 03:19:01;;;;;;;;;4.00;4.00;;;;;;;;5059655;27;51154;-57
2021/07/25 03:21:26;;;;;;;;;4.00;4.00;;;;;;;;5072091;28;51029;-57
2021/07/25 03:23:52;;;;;;;;;3.67;3.67;;;;;;;;5061152;27;51354;-58
2021/07/25 03:26:17;;;;;;;;;4.33;3.67;;;;;;;;5072926;28;52276;-57
2021/07/25 03:28:43;;;;;;;;;3.00;3.00;;;;;;;;5073741;27;51107;-57
2021/07/25 03:31:08;;;;;;;;;3.00;3.00;;;;;;;;5073903;27;50915;-58
2021/07/25 03:33:33;;;;;;;;;4.00;4.00;;;;;;;;5071872;27;51279;-57
2021/07/25 03:35:58;;;;;;;;;5.33;4.67;;;;;;;;5073777;28;51116;-57
2021/07/25 03:38:25;;;;;;;;;4.00;4.00;;;;;;;;5073521;27;51186;-57
2021/07/25 03:40:50;;;;;;;;;4.00;4.00;;;;;;;;5073683;27;51162;-57
2021/07/25 03:43:16;;;;;;;;;3.33;3.00;;;;;;;;5072623;27;51223;-57
2021/07/25 03:45:45;;;;;;;;;3.00;3.00;;;;;;;;5071238;28;52798;-57
2021/07/25 03:48:11;;;;;;;;;5.67;5.00;;;;;;;;5072695;27;51025;-58
2021/07/25 03:50:36;;;;;;;;;6.33;6.00;;;;;;;;5073532;27;50951;-58
2021/07/25 03:53:02;;;;;;;;;5.67;4.00;;;;;;;;5072590;27;51395;-57
2021/07/25 03:55:27;;;;;;;;;4.33;4.00;;;;;;;;5071755;28;51142;-57
2021/07/25 03:57:53;;;;;;;;;5.00;4.67;;;;;;;;5073456;28;50961;-57
2021/07/25 04:00:18;;;;;;;;;5.00;4.33;;;;;;;;5069964;27;51148;-57
2021/07/25 04:02:43;;;;;;;;;4.00;4.00;;;;;;;;5066398;27;50946;-58
2021/07/25 04:05:09;;;;;;;;;4.00;4.00;;;;;;;;5073206;27;52248;-58
2021/07/25 04:07:34;;;;;;;;;6.00;5.00;;;;;;;;5071716;28;51008;-57
2021/07/25 04:09:59;;;;;;;;;6.00;5.00;;;;;;;;5072779;27;50970;-57
2021/07/25 04:12:25;;;;;;;;;4.00;3.67;;;;;;;;5069671;27;51013;-57
2021/07/25 04:14:50;;;;;;;;;4.67;4.00;;;;;;;;5071293;28;51003;-58
2021/07/25 04:17:15;;;;;;;;;4.67;4.00;;;;;;;;5072927;27;51033;-58
2021/07/25 04:19:40;;;;;;;;;5.00;5.00;;;;;;;;5063957;27;50942;-58
2021/07/25 04:22:05;;;;;;;;;4.33;4.33;;;;;;;;5062461;27;51069;-62
2021/07/25 04:24:30;;;;;;;;;4.00;4.00;;;;;;;;5068580;28;51251;-57
2021/07/25 04:26:56;;;;;;;;;4.33;3.33;;;;;;;;5073255;27;51079;-56
2021/07/25 04:29:21;;;;;;;;;3.67;3.67;;;;;;;;5072639;28;50921;-58
2021/07/25 04:31:46;;;;;;;;;5.00;5.00;;;;;;;;5072342;27;50909;-58
2021/07/25 04:34:12;;;;;;;;;4.00;4.00;;;;;;;;5069860;27;53403;-58
2021/07/25 04:36:38;;;;;;;;;4.33;4.33;;;;;;;;5072809;28;50962;-58
2021/07/25 04:39:06;;;;;;;;;5.00;4.67;;;;;;;;5072520;28;51003;-58
2021/07/25 04:41:34;;;;;;;;;5.67;5.00;;;;;;;;5073185;27;51016;-57
2021/07/25 04:44:04;;;;;;;;;5.33;5.00;;;;;;;;5063114;27;51063;-58
2021/07/25 04:46:29;;;;;;;;;5.00;5.00;;;;;;;;5066110;28;51283;-57
2021/07/25 04:49:08;;;;;;;;;5.00;3.33;;;;;;;;5059182;28;50909;-57
2021/07/25 04:51:36;;;;;;;;;6.00;6.00;;;;;;;;5072752;27;50972;-57
2021/07/25 04:54:08;;;;;;;;;4.33;4.33;;;;;;;;5070586;27;52296;-57
2021/07/25 04:56:42;;;;;;;;;3.67;3.67;;;;;;;;5072332;28;50977;-57
2021/07/25 04:59:11;;;;;;;;;5.00;4.00;;;;;;;;5072369;27;51022;-57
2021/07/25 05:01:36;;;;;;;;;6.00;5.00;;;;;;;;5071354;28;50897;-58
2021/07/25 05:04:04;;;;;;;;;4.00;4.00;;;;;;;;5071180;27;52609;-58
2021/07/25 05:06:31;;;;;;;;;4.00;4.00;;;;;;;;5070117;28;51180;-57
2021/07/25 05:08:56;;;;;;;;;3.00;3.00;;;;;;;;5060853;27;51259;-57
2021/07/25 05:11:32;;;;;;;;;4.00;4.00;;;;;;;;5062863;28;51389;-57
2021/07/25 05:13:59;;;;;;;;;4.00;4.00;;;;;;;;5064848;28;51032;-57
2021/07/25 05:16:27;;;;;;;;;4.67;4.00;;;;;;;;5071829;27;51080;-57
2021/07/25 05:19:00;;;;;;;;;4.00;4.00;;;;;;;;5071950;27;50898;-57
2021/07/25 05:21:29;;;;;;;;;4.00;4.00;;;;;;;;5071029;28;51012;-57
2021/07/25 05:23:54;;;;;;;;;3.67;3.00;;;;;;;;5070483;27;51249;-58
2021/07/25 05:26:26;;;;;;;;;5.00;5.00;;;;;;;;5063048;27;50959;-58
2021/07/25 05:28:56;;;;;;;;;4.67;4.67;;;;;;;;5071325;28;51029;-57
2021/07/25 05:31:27;;;;;;;;;4.00;4.00;;;;;;;;5070230;27;51555;-57
2021/07/25 05:33:53;;;;;;;;;4.33;4.33;;;;;;;;5071606;27;51801;-57
2021/07/25 05:36:18;;;;;;;;;6.33;5.67;;;;;;;;5072026;27;50906;-57
2021/07/25 05:38:43;;;;;;;;;6.33;6.00;;;;;;;;5071640;27;50910;-57
2021/07/25 05:41:08;;;;;;;;;6.00;5.67;;;;;;;;5072084;27;51136;-57
2021/07/25 05:43:33;;;;;;;;;5.00;5.00;;;;;;;;5075259;27;51966;-57
2021/07/25 05:45:59;;;;;;;;;6.00;4.00;;;;;;;;5074494;27;51095;-57
2021/07/25 05:48:24;;;;;;;;;6.67;5.33;;;;;;;;5075327;27;51244;-56
2021/07/25 05:50:50;;;;;;;;;7.00;5.33;;;;;;;;5074166;27;51599;-56
2021/07/25 05:53:15;;;;;;;;;5.33;5.33;;;;;;;;5074952;27;53086;-57
2021/07/25 05:55:40;;;;;;;;;5.00;5.00;;;;;;;;5075278;27;51045;-55
2021/07/25 05:58:05;;;;;;;;;5.00;5.00;;;;;;;;5075224;27;50973;-56
2021/07/25 06:00:31;;;;;;;;;7.00;6.33;;;;;;;;5072026;27;51116;-57
2021/07/25 06:02:57;;;;;;;;;4.33;4.33;;;;;;;;5069418;28;52058;-57
2021/07/25 06:05:23;;;;;;;;;5.33;5.33;;;;;;;;5070912;28;50949;-57
2021/07/25 06:07:48;;;;;;;;;6.00;6.00;;;;;;;;5068696;28;51176;-56
2021/07/25 06:10:14;;;;;;;;;7.00;5.00;;;;;;;;5071958;28;51265;-57
2021/07/25 06:12:39;;;;;;;;;5.00;4.67;;;;;;;;5073721;27;52269;-57
2021/07/25 06:15:05;;;;;;;;;5.00;5.00;;;;;;;;5075280;27;50885;-56
2021/07/25 06:17:30;;;;;;;;;5.67;5.33;;;;;;;;5075156;27;50973;-56
2021/07/25 06:19:55;;;;;;;;;5.67;5.67;;;;;;;;5070411;27;51418;-57
2021/07/25 06:22:21;;;;;;;;;5.00;5.00;;;;;;;;5073502;27;51812;-57
2021/07/25 06:24:46;;;;;;;;;7.00;6.33;;;;;;;;5064217;27;51177;-57
2021/07/25 06:27:11;;;;;;;;;6.00;6.00;;;;;;;;5067437;28;51027;-57
2021/07/25 06:29:36;;;;;;;;;8.33;6.00;;;;;;;;5073430;28;51483;-56
2021/07/25 06:32:01;;;;;;;;;8.67;8.00;;;;;;;;5070080;27;52296;-57
2021/07/25 06:34:27;;;;;;;;;9.67;8.00;;;;;;;;5073099;28;51104;-57
2021/07/25 06:36:52;;;;;;;;;6.00;5.33;;;;;;;;5074787;27;51319;-57
2021/07/25 06:39:17;;;;;;;;;7.00;7.00;;;;;;;;5064967;27;51122;-57
2021/07/25 06:41:42;;;;;;;;;8.33;6.33;;;;;;;;5059395;28;51786;-56
2021/07/25 06:44:08;;;;;;;;;5.67;5.67;;;;;;;;5072454;28;50970;-57
2021/07/25 06:46:34;;;;;;;;;7.00;7.00;;;;;;;;5064872;28;50888;-57
2021/07/25 06:48:59;;;;;;;;;6.67;6.00;;;;;;;;5072459;28;50997;-57
2021/07/25 06:51:25;;;;;;;;;7.33;7.00;;;;;;;;5067155;28;51667;-58
2021/07/25 06:53:50;;;;;;;;;6.00;6.00;;;;;;;;5072943;27;51076;-57
2021/07/25 06:56:15;;;;;;;;;6.00;6.00;;;;;;;;5065771;27;50968;-57
2021/07/25 06:58:41;;;;;;;;;6.00;6.00;;;;;;;;5074594;28;51124;-56
2021/07/25 07:01:08;;;;;;;;;8.00;8.00;;;;;;;;5074357;27;52168;-62
2021/07/25 07:03:34;;;;;;;;;6.00;5.33;;;;;;;;5074364;27;51206;-58
2021/07/25 07:05:59;;;;;;;;;6.67;6.67;;;;;;;;5072892;27;50967;-58
2021/07/25 07:08:24;;;;;;;;;8.00;8.00;;;;;;;;5074492;27;51382;-58
2021/07/25 07:10:49;;;;;;;;;8.00;7.33;;;;;;;;5070992;27;51311;-58
2021/07/25 07:13:15;;;;;;;;;6.00;6.00;;;;;;;;5071632;27;51108;-57
2021/07/25 07:15:42;;;;;;;;;6.67;6.33;;;;;;;;5061960;27;51016;-58
2021/07/25 07:18:07;;;;;;;;;9.00;9.00;;;;;;;;5073256;28;51406;-58
2021/07/25 07:20:35;;;;;;;;;6.67;6.67;;;;;;;;5072923;27;50885;-58
2021/07/25 07:23:01;;;;;;;;;7.00;7.00;;;;;;;;5073169;28;51051;-59
2021/07/25 07:25:33;;;;;;;;;9.33;9.00;;;;;;;;5073224;27;50918;-58
2021/07/25 07:27:58;;;;;;;;;6.67;6.00;;;;;;;;5073620;27;51663;-58
2021/07/25 07:30:24;;;;;;;;;10.00;10.00;;;;;;;;5071161;27;51773;-58
2021/07/25 07:32:49;;;;;;;;;6.00;6.00;;;;;;;;5073820;28;51002;-58
2021/07/25 07:35:14;;;;;;;;;7.00;7.00;;;;;;;;5063157;28;51158;-58
2021/07/25 07:37:40;;;;;;;;;7.00;7.00;;;;;;;;5072300;28;51326;-56
2021/07/25 07:40:05;;;;;;;;;9.33;9.33;;;;;;;;5070457;28;51762;-57
2021/07/25 07:42:31;;;;;;;;;8.00;8.00;;;;;;;;5072302;28;51174;-57
2021/07/25 07:44:56;;;;;;;;;8.33;7.67;;;;;;;;5072540;27;51213;-57
2021/07/25 07:47:23;;;;;;;;;8.67;8.67;;;;;;;;5073810;28;50965;-58
2021/07/25 07:49:48;;;;;;;;;9.67;9.00;;;;;;;;5073367;27;51762;-57
2021/07/25 07:52:13;;;;;;;;;9.67;9.00;;;;;;;;5071924;28;51030;-57
2021/07/25 07:54:39;;;;;;;;;10.33;9.67;;;;;;;;5071970;27;51994;-56
2021/07/25 07:57:04;;;;;;;;;6.67;6.67;;;;;;;;5072298;27;51264;-57
2021/07/25 07:59:29;;;;;;;;;9.00;8.00;;;;;;;;5073274;27;52457;-57
2021/07/25 08:01:55;;;;;;;;;9.33;8.33;;;;;;;;5071847;28;51038;-57
2021/07/25 08:04:20;;;;;;;;;9.33;9.00;;;;;;;;5064710;27;51472;-58
2021/07/25 08:06:45;;;;;;;;;9.67;9.00;;;;;;;;5062072;28;51087;-56
2021/07/25 08:09:11;;;;;;;;;10.33;9.33;;;;;;;;5064194;28;50930;-57
2021/07/25 08:11:43;;;;;;;;;9.33;9.33;;;;;;;;5073037;27;50902;-57
2021/07/25 08:14:08;;;;;;;;;9.67;9.67;;;;;;;;5070559;27;51190;-57
2021/07/25 08:16:33;;;;;;;;;11.00;9.00;;;;;;;;5066851;27;51215;-56
2021/07/25 08:18:58;;;;;;;;;8.00;7.67;;;;;;;;5072351;27;52308;-57
2021/07/25 08:21:23;;;;;;;;;10.33;10.33;;;;;;;;5072381;27;51124;-57
2021/07/25 08:23:49;;;;;;;;;10.00;10.00;;;;;;;;5072293;27;50941;-57
2021/07/25 08:26:14;;;;;;;;;12.00;10.33;;;;;;;;5072746;27;50967;-61
2021/07/25 08:28:39;;;;;;;;;13.00;13.00;;;;;;;;5072533;27;51214;-57
2021/07/25 08:31:05;;;;;;;;;10.33;9.33;;;;;;;;5072712;28;51023;-57
2021/07/25 08:33:30;;;;;;;;;10.00;10.00;;;;;;;;5071396;28;51057;-58
2021/07/25 08:35:56;;;;;;;;;9.33;9.00;;;;;;;;5072755;27;51382;-57
2021/07/25 08:38:21;;;;;;;;;10.33;10.33;;;;;;;;5070812;28;53217;-57
2021/07/25 08:40:58;;;;;;;;;12.00;11.00;;;;;;;;5072282;27;51135;-57
2021/07/25 08:43:31;;;;;;;;;9.67;9.00;;;;;;;;5072752;27;50877;-57
2021/07/25 08:45:56;;;;;;;;;11.00;11.00;;;;;;;;5072713;27;50768;-58
2021/07/25 08:48:25;;;;;;;;;13.33;10.67;;;;;;;;5071902;27;51645;-57
2021/07/25 08:51:02;;;;;;;;;10.67;10.67;;;;;;;;5072294;27;51080;-56
2021/07/25 08:53:27;;;;;;;;;13.00;12.00;;;;;;;;5071648;27;50958;-57
2021/07/25 08:55:53;;;;;;;;;11.67;10.67;;;;;;;;5072273;27;51111;-57
2021/07/25 08:58:21;;;;;;;;;10.67;10.33;;;;;;;;5071719;27;51951;-57
2021/07/25 09:00:49;;;;;;;;;10.00;10.00;;;;;;;;5072335;27;50951;-57
2021/07/25 09:03:15;;;;;;;;;11.00;11.00;;;;;;;;5072279;27;50886;-56
2021/07/25 09:05:42;;;;;;;;;10.67;10.67;;;;;;;;5072372;27;50984;-58
2021/07/25 09:08:07;;;;;;;;;12.67;12.33;;;;;;;;5071666;27;51022;-56
2021/07/25 09:10:33;;;;;;;;;11.00;11.00;;;;;;;;5067516;27;51191;-57
2021/07/25 09:12:58;;;;;;;;;12.00;11.00;;;;;;;;5072081;27;51148;-58
2021/07/25 09:15:26;;;;;;;;;12.00;11.00;;;;;;;;5072487;27;51055;-57
2021/07/25 09:17:51;;;;;;;;;10.33;9.33;;;;;;;;5075030;27;52906;-57
2021/07/25 09:20:17;;;;;;;;;12.00;11.67;;;;;;;;5075819;27;50916;-58
2021/07/25 09:22:48;;;;;;;;;10.00;9.33;;;;;;;;5075449;27;50889;-57
2021/07/25 09:25:13;;;;;;;;;13.00;12.00;;;;;;;;5075608;27;50956;-57
2021/07/25 09:27:39;;;;;;;;;11.00;10.00;;;;;;;;5075191;28;51788;-57
2021/07/25 09:30:17;;;;;;;;;6.67;5.67;;;;;;;;5075309;27;50984;-57
2021/07/25 09:32:42;;;;;;;;;12.67;12.67;;;;;;;;5075270;27;51136;-57
2021/07/25 09:35:21;;;;;;;;;11.00;10.00;;;;;;;;5074481;28;50959;-56
2021/07/25 09:37:48;;;;;;;;;11.00;11.00;;;;;;;;5075260;27;53764;-58
2021/07/25 09:40:13;;;;;;;;;7.67;7.67;;;;;;;;5074933;27;51121;-57
2021/07/25 09:42:39;;;;;;;;;9.00;8.00;;;;;;;;5075083;28;51215;-57
2021/07/25 09:45:05;;;;;;;;;7.00;7.00;;;;;;;;5074047;28;51080;-58
2021/07/25 09:47:35;;;;;;;;;8.33;7.67;;;;;;;;5073750;28;52001;-57
2021/07/25 09:50:02;;;;;;;;;7.00;6.67;;;;;;;;5075079;27;51056;-58
2021/07/25 09:52:39;;;;;;;;;8.67;7.67;;;;;;;;5074008;28;51092;-57
2021/07/25 09:55:08;;;;;;;;;9.00;8.67;;;;;;;;5075070;27;51286;-57
2021/07/25 09:57:37;;;;;;;;;8.67;7.67;;;;;;;;5073524;28;51052;-57
2021/07/25 10:00:14;;;;;;;;;9.00;8.67;;;;;;;;5074808;27;50997;-57
2021/07/25 10:02:42;;;;;;;;;9.00;8.67;;;;;;;;5075014;27;51112;-57
2021/07/25 10:05:08;;;;;;;;;9.00;8.00;;;;;;;;5074716;27;51258;-57
2021/07/25 10:07:34;;;;;;;;;10.00;10.00;;;;;;;;5073022;28;51828;-57
2021/07/25 10:10:02;;;;;;;;;10.00;8.67;;;;;;;;5073931;27;50959;-57
2021/07/25 10:12:28;;;;;;;;;10.00;10.00;;;;;;;;5075140;27;50990;-57
2021/07/25 10:14:54;;;;;;;;;10.33;10.33;;;;;;;;5074619;27;51424;-58
2021/07/25 10:17:20;;;;;;;;;9.33;9.33;;;;;;;;5074468;27;51322;-57
2021/07/25 10:19:46;;;;;;;;;5.33;5.33;;;;;;;;5074488;28;50988;-57
2021/07/25 10:22:12;;;;;;;;;10.00;9.00;;;;;;;;5074715;27;50907;-56
2021/07/25 10:24:39;;;;;;;;;8.67;8.67;;;;;;;;5074371;27;50917;-58
2021/07/25 10:27:04;;;;;;;;;8.00;8.00;;;;;;;;5073631;27;51738;-56
2021/07/25 10:29:29;;;;;;;;;10.00;9.00;;;;;;;;5073986;28;51037;-57
2021/07/25 10:31:55;;;;;;;;;8.00;7.67;;;;;;;;5074600;27;50971;-58
2021/07/25 10:34:21;;;;;;;;;9.00;9.00;;;;;;;;5072472;28;51377;-56
2021/07/25 10:36:48;;;;;;;;;9.00;8.33;;;;;;;;5074205;27;52709;-57
2021/07/25 10:39:13;;;;;;;;;10.00;9.00;;;;;;;;5073725;27;51206;-57
2021/07/25 10:41:40;;;;;;;;;10.33;10.33;;;;;;;;5073962;27;51061;-58
2021/07/25 10:44:05;;;;;;;;;8.67;8.67;;;;;;;;5074434;27;50879;-57
2021/07/25 10:46:32;;;;;;;;;11.67;10.67;;;;;;;;5072525;28;52216;-57
2021/07/25 10:49:00;;;;;;;;;7.67;7.67;;;;;;;;5073887;27;50902;-57
2021/07/25 10:51:32;;;;;;;;;8.67;8.33;;;;;;;;5073988;27;51098;-57
2021/07/25 10:54:16;;;;;;;;;8.00;7.67;;;;;;;;5073911;27;50860;-57
2021/07/25 10:56:59;;;;;;;;;8.67;8.67;;;;;;;;5073419;28;50998;-58
2021/07/25 10:59:43;;;;;;;;;8.33;7.67;;;;;;;;5074128;27;51053;-57
2021/07/25 11:02:17;;;;;;;;;8.00;8.00;;;;;;;;5073668;27;51189;-58
2021/07/25 11:04:48;;;;;;;;;8.33;8.33;;;;;;;;5073634;27;51001;-58
2021/07/25 11:07:22;;;;;;;;;9.67;9.67;;;;;;;;5073406;27;51131;-58
2021/07/25 11:09:54;;;;;;;;;7.33;7.33;;;;;;;;5072602;27;50825;-58
2021/07/25 11:12:19;;;;;;;;;10.33;10.33;;;;;;;;5061493;27;51117;-57
2021/07/25 11:14:56;;;;;;;;;11.67;11.67;;;;;;;;5072764;28;51296;-57
2021/07/25 11:17:40;;;;;;;;;8.67;7.67;;;;;;;;5073331;27;50956;-56
2021/07/25 11:20:05;;;;;;;;;11.67;10.67;;;;;;;;5073263;28;51057;-59
2021/07/25 11:22:43;;;;;;;;;9.00;9.00;;;;;;;;5072875;27;51004;-59
2021/07/25 11:25:08;;;;;;;;;10.00;9.67;;;;;;;;5051268;28;51264;-57
2021/07/25 11:27:46;;;;;;;;;11.00;10.67;;;;;;;;5068909;28;51869;-57
2021/07/25 11:30:11;;;;;;;;;10.00;9.00;;;;;;;;5073060;27;50921;-58
2021/07/25 11:32:37;;;;;;;;;11.00;10.00;;;;;;;;5073018;27;51031;-57
2021/07/25 11:35:06;;;;;;;;;12.33;11.33;;;;;;;;5072977;27;50979;-58
2021/07/25 11:37:34;;;;;;;;;10.00;10.00;;;;;;;;5072507;27;51040;-58
2021/07/25 11:39:59;;;;;;;;;12.67;12.00;;;;;;;;5071738;27;51102;-59
2021/07/25 11:42:25;;;;;;;;;15.00;14.00;;;;;;;;5072937;27;50965;-59
2021/07/25 11:44:50;;;;;;;;;11.00;11.00;;;;;;;;5072129;28;51396;-57
2021/07/25 11:47:25;;;;;;;;;13.00;11.33;;;;;;;;5072470;28;51119;-57
2021/07/25 11:49:50;;;;;;;;;13.67;12.33;;;;;;;;5072598;27;51108;-58
2021/07/25 11:52:19;;;;;;;;;12.33;11.67;;;;;;;;5072882;27;51123;-58
2021/07/25 11:54:44;;;;;;;;;13.00;12.33;;;;;;;;5072442;27;50867;-58
2021/07/25 11:57:16;;;;;;;;;14.25;14.25;;;;;;;;5072744;27;51644;-58
2021/07/25 11:59:48;;;;;;;;;12.00;12.00;;;;;;;;5072569;27;51088;-58
2021/07/25 12:02:20;;;;;;;;;10.67;10.00;;;;;;;;5072704;27;51031;-58
2021/07/25 12:04:45;;;;;;;;;10.33;10.33;;;;;;;;5072364;27;50795;-58
2021/07/25 12:07:15;;;;;;;;;11.33;11.33;;;;;;;;5072122;27;51087;-58
2021/07/25 12:09:47;;;;;;;;;11.00;11.00;;;;;;;;5071497;28;51166;-58
2021/07/25 12:12:22;;;;;;;;;15.00;13.00;;;;;;;;5072706;27;50985;-58
2021/07/25 12:14:49;;;;;;;;;11.00;11.00;;;;;;;;5070178;28;50849;-58
2021/07/25 12:17:33;;;;;;;;;12.00;12.00;;;;;;;;5072755;27;51089;-57
2021/07/25 12:20:08;;;;;;;;;10.33;10.33;;;;;;;;5072107;28;50924;-57
2021/07/25 12:22:33;;;;;;;;;16.00;15.00;;;;;;;;5070675;28;50906;-58
2021/07/25 12:25:04;;;;;;;;;14.00;14.00;;;;;;;;5070671;28;51230;-55
2021/07/25 12:27:31;;;;;;;;;12.33;12.33;;;;;;;;5072170;27;52098;-58
2021/07/25 12:30:20;;;;;;;;;10.33;10.33;;;;;;;;5072257;27;50976;-58
2021/07/25 12:32:46;;;;;;;;;11.00;10.00;;;;;;;;5056849;28;51068;-57
2021/07/25 12:35:11;;;;;;;;;11.00;11.00;;;;;;;;5072422;27;51047;-58
2021/07/25 12:37:43;;;;;;;;;9.00;9.00;;;;;;;;5071769;27;51012;-59
2021/07/25 12:40:10;;;;;;;;;10.00;10.00;;;;;;;;5071415;27;51062;-58
2021/07/25 12:42:37;;;;;;;;;11.00;11.00;;;;;;;;5072035;27;50973;-58
2021/07/25 12:45:21;;;;;;;;;11.00;10.00;;;;;;;;5072044;28;51127;-58
2021/07/25 12:47:46;;;;;;;;;9.00;9.00;;;;;;;;5070178;28;51542;-58
2021/07/25 12:50:11;;;;;;;;;9.00;9.00;;;;;;;;5071005;27;51148;-57
2021/07/25 12:52:36;;;;;;;;;10.00;9.67;;;;;;;;5070032;28;50977;-57
2021/07/25 12:55:02;;;;;;;;;10.00;9.67;;;;;;;;5071453;27;51008;-57
2021/07/25 12:57:27;;;;;;;;;9.00;9.00;;;;;;;;5071720;28;52356;-56
2021/07/25 12:59:52;;;;;;;;;9.50;9.00;;;;;;;;5071826;27;51247;-57
2021/07/25 13:05:01;;;;;;;;;10.00;9.33;;;;;;;;5071580;27;51026;-57
2021/07/25 13:07:26;;;;;;;;;9.67;9.67;;;;;;;;5069672;28;51779;-58
2021/07/25 13:09:52;;;;;;;;;7.67;7.00;;;;;;;;5070923;27;51022;-57
2021/07/25 13:12:17;;;;;;;;;5.67;5.67;;;;;;;;5068418;27;50904;-58
2021/07/25 13:14:42;;;;;;;;;6.67;6.67;;;;;;;;5070712;28;51054;-58
2021/07/25 13:17:07;;;;;;;;;5.00;5.00;;;;;;;;5071246;28;51298;-57
2021/07/25 13:19:33;;;;;;;;;5.00;5.00;;;;;;;;5070931;27;51087;-58
2021/07/25 13:21:58;;;;;;;;;8.33;8.33;;;;;;;;5071227;27;51090;-58
2021/07/25 13:24:23;;;;;;;;;6.33;6.00;;;;;;;;5070707;27;50876;-57
2021/07/25 13:26:49;;;;;;;;;8.00;7.00;;;;;;;;5070985;27;51717;-58
2021/07/25 13:29:14;;;;;;;;;5.00;4.00;;;;;;;;5070591;28;50971;-57
2021/07/25 13:31:39;;;;;;;;;6.00;6.00;;;;;;;;5071125;27;51064;-58
2021/07/25 13:34:05;;;;;;;;;6.00;6.00;;;;;;;;5071168;28;51156;-57
2021/07/25 13:36:30;;;;;;;;;5.67;5.67;;;;;;;;5070886;27;51535;-57
2021/07/25 13:38:55;;;;;;;;;5.67;5.00;;;;;;;;5070228;28;50957;-57
2021/07/25 13:41:20;;;;;;;;;6.00;6.00;;;;;;;;5070779;28;50853;-58
2021/07/25 13:43:50;;;;;;;;;5.00;5.00;;;;;;;;5070501;27;51256;-59
2021/07/25 13:46:18;;;;;;;;;6.00;6.00;;;;;;;;5070353;27;51837;-58
2021/07/25 13:48:44;;;;;;;;;7.00;6.67;;;;;;;;5052031;28;51058;-57
2021/07/25 13:51:11;;;;;;;;;5.00;5.00;;;;;;;;5070294;27;51125;-57
2021/07/25 13:53:37;;;;;;;;;5.33;5.33;;;;;;;;5070447;27;50998;-57
2021/07/25 13:56:03;;;;;;;;;4.33;4.33;;;;;;;;5070188;27;52114;-58
2021/07/25 13:58:29;;;;;;;;;3.33;3.33;;;;;;;;5070564;27;51013;-57
2021/07/25 14:00:54;;;;;;;;;3.33;3.33;;;;;;;;5070868;27;50991;-58
2021/07/25 14:03:19;;;;;;;;;4.00;4.00;;;;;;;;5072526;27;51338;-57
2021/07/25 14:05:44;;;;;;;;;5.00;4.00;;;;;;;;5073015;27;51528;-56
2021/07/25 14:08:10;;;;;;;;;7.33;6.67;;;;;;;;5072787;27;50902;-58
2021/07/25 14:10:35;;;;;;;;;5.00;5.00;;;;;;;;5073747;27;51178;-58
2021/07/25 14:13:01;;;;;;;;;5.00;5.00;;;;;;;;5073632;28;51024;-58
2021/07/25 14:15:26;;;;;;;;;5.67;5.00;;;;;;;;5073165;27;51108;-57
2021/07/25 14:17:52;;;;;;;;;5.00;5.00;;;;;;;;5073035;27;51044;-58
2021/07/25 14:20:18;;;;;;;;;4.00;4.00;;;;;;;;5073552;27;50984;-57
2021/07/25 14:22:44;;;;;;;;;8.00;6.67;;;;;;;;5071395;28;51030;-58
2021/07/25 14:25:10;;;;;;;;;5.00;5.00;;;;;;;;5072709;27;51509;-57
2021/07/25 14:27:35;;;;;;;;;6.00;6.00;;;;;;;;5071779;28;50906;-58
2021/07/25 14:30:01;;;;;;;;;6.00;5.67;;;;;;;;5073069;27;50930;-58
2021/07/25 14:32:26;;;;;;;;;5.67;5.00;;;;;;;;5073551;27;50870;-58
2021/07/25 14:34:52;;;;;;;;;5.67;5.00;;;;;;;;5072822;27;52028;-58
2021/07/25 14:37:17;;;;;;;;;4.00;4.00;;;;;;;;5073056;28;50989;-58
2021/07/25 14:39:42;;;;;;;;;3.33;3.00;;;;;;;;5072877;27;51026;-57